IGO257C VILH-VIDP
Flight info
| Callsign | IGO257C |
|---|---|
| Flight time | 1h 43m |
| Altitude | 32000 |
| Route | 340712N0772941E 340830N0772736E 341105N0772348E 341135N0771700E 341224N0771330E DCT LELAX W39 SP SP6N |
| Aircraft | A320/M-SDE3FGHIRWY/LB1 |
Departure
| Time | 2026-04-15 03:42 |
|---|---|
| Airport | Leh Kushok Bakula Rimpochee Airport (VILH) |
Arrival
| Time | 2026-04-15 05:25 |
|---|---|
| Airport | Indira Gandhi International Airport (VIDP) |
| Time | Latitude | Longitude | Altitude | Speed | Heading |
|---|---|---|---|---|---|
| 2026-04-15 03:30 | 34.14153 | 77.55235 | 10835 ft | 0 kts | 158° |
| 2026-04-15 03:36 | 34.14155 | 77.55234 | 10832 ft | 2 kts | 158° |
| 2026-04-15 03:36 | 34.14170 | 77.55226 | 10831 ft | 2 kts | 159° |
| 2026-04-15 03:36 | 34.14167 | 77.55230 | 10831 ft | 2 kts | 128° |
| 2026-04-15 03:36 | 34.14177 | 77.55245 | 10833 ft | 2 kts | 44° |
| 2026-04-15 03:37 | 34.14187 | 77.55258 | 10834 ft | 2 kts | 53° |
| 2026-04-15 03:37 | 34.14188 | 77.55260 | 10834 ft | 0 kts | 57° |
| 2026-04-15 03:37 | 34.14193 | 77.55269 | 10834 ft | 3 kts | 60° |
| 2026-04-15 03:38 | 34.14200 | 77.55312 | 10834 ft | 7 kts | 98° |
| 2026-04-15 03:38 | 34.14151 | 77.55360 | 10834 ft | 12 kts | 155° |
| 2026-04-15 03:38 | 34.14070 | 77.55409 | 10834 ft | 14 kts | 143° |
| 2026-04-15 03:38 | 34.14052 | 77.55508 | 10832 ft | 12 kts | 92° |
| 2026-04-15 03:39 | 34.14050 | 77.55615 | 10834 ft | 13 kts | 91° |
| 2026-04-15 03:39 | 34.14049 | 77.55728 | 10834 ft | 14 kts | 90° |
| 2026-04-15 03:39 | 34.14049 | 77.55848 | 10867 ft | 15 kts | 90° |
| 2026-04-15 03:39 | 34.14049 | 77.55970 | 10868 ft | 14 kts | 90° |
| 2026-04-15 03:40 | 34.14032 | 77.56070 | 10869 ft | 9 kts | 156° |
| 2026-04-15 03:40 | 34.14012 | 77.56041 | 10867 ft | 5 kts | 247° |
| 2026-04-15 03:40 | 34.14011 | 77.56038 | 10867 ft | 0 kts | 247° |
| 2026-04-15 03:40 | 34.14004 | 77.56016 | 10870 ft | 10 kts | 250° |
| 2026-04-15 03:41 | 34.13914 | 77.55700 | 10869 ft | 71 kts | 250° |
| 2026-04-15 03:41 | 34.13684 | 77.54910 | 10865 ft | 126 kts | 250° |
| 2026-04-15 03:41 | 34.13343 | 77.53739 | 10868 ft | 168 kts | 250° |
| 2026-04-15 03:41 | 34.12905 | 77.52282 | 11003 ft | 197 kts | 250° |
| 2026-04-15 03:42 | 34.12439 | 77.50639 | 11346 ft | 216 kts | 259° |
| 2026-04-15 03:42 | 34.12230 | 77.48751 | 11662 ft | 238 kts | 258° |
| 2026-04-15 03:42 | 34.11972 | 77.46724 | 12191 ft | 246 kts | 270° |
| 2026-04-15 03:42 | 34.12395 | 77.44823 | 13241 ft | 230 kts | 305° |
| 2026-04-15 03:43 | 34.13583 | 77.43693 | 14271 ft | 213 kts | 344° |
| 2026-04-15 03:43 | 34.15008 | 77.43725 | 14971 ft | 210 kts | 24° |
| 2026-04-15 03:43 | 34.16271 | 77.44746 | 15220 ft | 230 kts | 36° |
| 2026-04-15 03:43 | 34.17799 | 77.45493 | 15407 ft | 251 kts | 1° |
| 2026-04-15 03:44 | 34.19527 | 77.44955 | 15654 ft | 268 kts | 325° |
| 2026-04-15 03:44 | 34.20767 | 77.43207 | 15947 ft | 286 kts | 290° |
| 2026-04-15 03:44 | 34.21009 | 77.40871 | 16685 ft | 281 kts | 266° |
| 2026-04-15 03:44 | 34.21024 | 77.38520 | 17312 ft | 282 kts | 284° |
| 2026-04-15 03:45 | 34.21941 | 77.36462 | 17894 ft | 283 kts | 317° |
| 2026-04-15 03:45 | 34.23647 | 77.35324 | 18444 ft | 285 kts | 350° |
| 2026-04-15 03:45 | 34.25610 | 77.35478 | 18940 ft | 288 kts | 22° |
| 2026-04-15 03:45 | 34.27224 | 77.36898 | 19427 ft | 293 kts | 54° |
| 2026-04-15 03:46 | 34.27984 | 77.39162 | 19935 ft | 297 kts | 85° |
| 2026-04-15 03:46 | 34.27659 | 77.41624 | 20393 ft | 303 kts | 116° |
| 2026-04-15 03:46 | 34.26319 | 77.43574 | 20802 ft | 306 kts | 148° |
| 2026-04-15 03:46 | 34.24355 | 77.44549 | 21200 ft | 308 kts | 171° |
| 2026-04-15 03:47 | 34.22236 | 77.45058 | 21555 ft | 313 kts | 171° |
| 2026-04-15 03:47 | 34.20067 | 77.45337 | 21983 ft | 314 kts | 191° |
| 2026-04-15 03:47 | 34.18057 | 77.44467 | 22360 ft | 306 kts | 221° |
| 2026-04-15 03:47 | 34.16733 | 77.42548 | 22726 ft | 297 kts | 252° |
| 2026-04-15 03:48 | 34.16444 | 77.40148 | 23116 ft | 289 kts | 283° |
| 2026-04-15 03:48 | 34.17086 | 77.37865 | 23524 ft | 289 kts | 295° |
| 2026-04-15 03:48 | 34.17870 | 77.35615 | 23970 ft | 292 kts | 295° |
| 2026-04-15 03:48 | 34.18661 | 77.33353 | 24396 ft | 293 kts | 294° |
| 2026-04-15 03:49 | 34.19262 | 77.30987 | 24781 ft | 296 kts | 283° |
| 2026-04-15 03:49 | 34.19588 | 77.28526 | 25171 ft | 298 kts | 281° |
| 2026-04-15 03:49 | 34.19933 | 77.26054 | 25540 ft | 299 kts | 279° |
| 2026-04-15 03:49 | 34.19993 | 77.23531 | 25918 ft | 304 kts | 268° |
| 2026-04-15 03:50 | 34.19577 | 77.21015 | 26300 ft | 309 kts | 255° |
| 2026-04-15 03:50 | 34.18630 | 77.18646 | 26695 ft | 317 kts | 240° |
| 2026-04-15 03:50 | 34.17148 | 77.16634 | 27066 ft | 327 kts | 224° |
| 2026-04-15 03:50 | 34.15185 | 77.15178 | 27372 ft | 338 kts | 207° |
| 2026-04-15 03:51 | 34.12872 | 77.14470 | 27627 ft | 351 kts | 189° |
| 2026-04-15 03:51 | 34.10405 | 77.14655 | 27922 ft | 363 kts | 171° |
| 2026-04-15 03:51 | 34.08027 | 77.15806 | 28260 ft | 375 kts | 151° |
| 2026-04-15 03:51 | 34.06026 | 77.17862 | 28568 ft | 384 kts | 131° |
| 2026-04-15 03:52 | 34.04295 | 77.20327 | 28857 ft | 385 kts | 140° |
| 2026-04-15 03:52 | 34.02149 | 77.22208 | 29144 ft | 380 kts | 159° |
| 2026-04-15 03:52 | 33.99688 | 77.23232 | 29458 ft | 372 kts | 174° |
| 2026-04-15 03:52 | 33.97146 | 77.23877 | 29761 ft | 374 kts | 175° |
| 2026-04-15 03:53 | 33.94586 | 77.24517 | 30123 ft | 377 kts | 175° |
| 2026-04-15 03:53 | 33.92009 | 77.25159 | 30477 ft | 379 kts | 175° |
| 2026-04-15 03:53 | 33.89418 | 77.25808 | 30782 ft | 381 kts | 175° |
| 2026-04-15 03:53 | 33.86813 | 77.26463 | 31048 ft | 384 kts | 175° |
| 2026-04-15 03:54 | 33.84186 | 77.27126 | 31322 ft | 387 kts | 175° |
| 2026-04-15 03:54 | 33.81549 | 77.27793 | 31574 ft | 389 kts | 175° |
| 2026-04-15 03:54 | 33.78889 | 77.28465 | 31832 ft | 391 kts | 176° |
| 2026-04-15 03:55 | 33.73517 | 77.29820 | 32262 ft | 400 kts | 176° |
| 2026-04-15 03:55 | 33.67967 | 77.31213 | 32303 ft | 420 kts | 175° |
| 2026-04-15 03:56 | 33.62067 | 77.32693 | 32302 ft | 441 kts | 175° |
| 2026-04-15 03:56 | 33.55953 | 77.34226 | 32311 ft | 459 kts | 175° |
| 2026-04-15 03:57 | 33.49673 | 77.35802 | 32311 ft | 467 kts | 175° |
| 2026-04-15 03:57 | 33.43315 | 77.37415 | 32318 ft | 468 kts | 175° |
| 2026-04-15 03:58 | 33.36939 | 77.39017 | 32315 ft | 468 kts | 175° |
| 2026-04-15 03:58 | 33.30566 | 77.40607 | 32322 ft | 468 kts | 175° |
| 2026-04-15 03:59 | 33.24184 | 77.42202 | 32318 ft | 468 kts | 175° |
| 2026-04-15 03:59 | 33.17806 | 77.43794 | 32319 ft | 468 kts | 175° |
| 2026-04-15 04:00 | 33.11431 | 77.45373 | 32313 ft | 468 kts | 175° |
| 2026-04-15 04:00 | 33.05048 | 77.46955 | 32309 ft | 469 kts | 175° |
| 2026-04-15 04:01 | 32.98663 | 77.48544 | 32303 ft | 468 kts | 175° |
| 2026-04-15 04:01 | 32.92283 | 77.50126 | 32309 ft | 469 kts | 175° |
| 2026-04-15 04:02 | 32.85901 | 77.51706 | 32313 ft | 468 kts | 175° |
| 2026-04-15 04:02 | 32.79520 | 77.53291 | 32321 ft | 469 kts | 175° |
| 2026-04-15 04:03 | 32.73139 | 77.54857 | 32303 ft | 468 kts | 175° |
| 2026-04-15 04:03 | 32.66759 | 77.56418 | 32299 ft | 468 kts | 175° |
| 2026-04-15 04:04 | 32.60384 | 77.57988 | 32290 ft | 468 kts | 175° |
| 2026-04-15 04:04 | 32.53994 | 77.59558 | 32288 ft | 469 kts | 175° |
| 2026-04-15 04:05 | 32.47603 | 77.61122 | 32270 ft | 469 kts | 175° |
| 2026-04-15 04:05 | 32.41198 | 77.62663 | 32268 ft | 468 kts | 178° |
| 2026-04-15 04:06 | 32.34836 | 77.62850 | 32243 ft | 453 kts | 192° |
| 2026-04-15 04:06 | 32.28548 | 77.62318 | 32232 ft | 454 kts | 192° |
| 2026-04-15 04:07 | 32.22252 | 77.61781 | 32220 ft | 453 kts | 192° |
| 2026-04-15 04:07 | 32.15967 | 77.61256 | 32195 ft | 453 kts | 192° |
| 2026-04-15 04:08 | 32.09672 | 77.60735 | 32179 ft | 454 kts | 192° |
| 2026-04-15 04:08 | 32.03367 | 77.60209 | 32168 ft | 454 kts | 192° |
| 2026-04-15 04:09 | 31.97078 | 77.59686 | 32150 ft | 453 kts | 192° |
| 2026-04-15 04:09 | 31.90787 | 77.59161 | 32132 ft | 453 kts | 192° |
| 2026-04-15 04:10 | 31.84499 | 77.58632 | 32110 ft | 453 kts | 192° |
| 2026-04-15 04:10 | 31.78223 | 77.58110 | 32095 ft | 453 kts | 192° |
| 2026-04-15 04:11 | 31.71932 | 77.57599 | 32072 ft | 453 kts | 192° |
| 2026-04-15 04:11 | 31.65693 | 77.57084 | 32054 ft | 452 kts | 192° |
| 2026-04-15 04:12 | 31.59383 | 77.56560 | 32034 ft | 451 kts | 192° |
| 2026-04-15 04:12 | 31.53128 | 77.56050 | 32002 ft | 449 kts | 192° |
| 2026-04-15 04:13 | 31.46875 | 77.55539 | 31998 ft | 451 kts | 192° |
| 2026-04-15 04:13 | 31.40665 | 77.55026 | 31980 ft | 450 kts | 192° |
| 2026-04-15 04:14 | 31.34400 | 77.54506 | 31981 ft | 452 kts | 192° |
| 2026-04-15 04:14 | 31.28127 | 77.53994 | 31973 ft | 452 kts | 192° |
| 2026-04-15 04:15 | 31.21852 | 77.53486 | 31962 ft | 451 kts | 192° |
| 2026-04-15 04:15 | 31.15575 | 77.52978 | 31965 ft | 452 kts | 192° |
| 2026-04-15 04:16 | 31.09312 | 77.52452 | 31966 ft | 451 kts | 192° |
| 2026-04-15 04:16 | 31.03061 | 77.51900 | 31958 ft | 451 kts | 192° |
| 2026-04-15 04:17 | 30.96803 | 77.51366 | 31944 ft | 450 kts | 192° |
| 2026-04-15 04:17 | 30.90556 | 77.50844 | 31934 ft | 449 kts | 192° |
| 2026-04-15 04:18 | 30.85372 | 77.50399 | 31926 ft | 449 kts | 192° |
| 2026-04-15 04:18 | 30.79139 | 77.49859 | 31924 ft | 449 kts | 192° |
| 2026-04-15 04:19 | 30.72904 | 77.49325 | 31912 ft | 449 kts | 192° |
| 2026-04-15 04:19 | 30.66670 | 77.48802 | 31898 ft | 450 kts | 192° |
| 2026-04-15 04:20 | 30.60425 | 77.48280 | 31886 ft | 450 kts | 192° |
| 2026-04-15 04:20 | 30.54181 | 77.47755 | 31877 ft | 449 kts | 192° |
| 2026-04-15 04:21 | 30.47945 | 77.47230 | 31874 ft | 449 kts | 192° |
| 2026-04-15 04:21 | 30.41715 | 77.46695 | 31866 ft | 449 kts | 192° |
| 2026-04-15 04:22 | 30.35485 | 77.46176 | 31865 ft | 448 kts | 192° |
| 2026-04-15 04:22 | 30.29267 | 77.45660 | 31861 ft | 447 kts | 192° |
| 2026-04-15 04:23 | 30.23064 | 77.45138 | 31856 ft | 447 kts | 192° |
| 2026-04-15 04:23 | 30.16865 | 77.44621 | 31852 ft | 447 kts | 192° |
| 2026-04-15 04:24 | 30.10668 | 77.44099 | 31848 ft | 446 kts | 192° |
| 2026-04-15 04:24 | 30.04528 | 77.43590 | 31839 ft | 432 kts | 193° |
| 2026-04-15 04:24 | 30.01583 | 77.43358 | 31842 ft | 416 kts | 193° |
| 2026-04-15 04:25 | 29.98765 | 77.43036 | 31841 ft | 393 kts | 202° |
| 2026-04-15 04:25 | 29.96301 | 77.42041 | 31847 ft | 362 kts | 218° |
| 2026-04-15 04:25 | 29.94291 | 77.40445 | 31844 ft | 343 kts | 232° |
| 2026-04-15 04:25 | 29.92750 | 77.38428 | 31851 ft | 330 kts | 244° |
| 2026-04-15 04:26 | 29.91692 | 77.36126 | 31847 ft | 321 kts | 255° |
| 2026-04-15 04:26 | 29.91121 | 77.33669 | 31855 ft | 316 kts | 266° |
| 2026-04-15 04:26 | 29.91027 | 77.31159 | 31842 ft | 313 kts | 276° |
| 2026-04-15 04:26 | 29.91414 | 77.28699 | 31849 ft | 312 kts | 287° |
| 2026-04-15 04:27 | 29.92275 | 77.26398 | 31843 ft | 315 kts | 297° |
| 2026-04-15 04:27 | 29.93577 | 77.24349 | 31848 ft | 321 kts | 308° |
| 2026-04-15 04:27 | 29.95282 | 77.22649 | 31851 ft | 329 kts | 320° |
| 2026-04-15 04:27 | 29.97346 | 77.21421 | 31847 ft | 340 kts | 332° |
| 2026-04-15 04:28 | 29.99687 | 77.20775 | 31849 ft | 354 kts | 345° |
| 2026-04-15 04:28 | 30.04708 | 77.20820 | 31851 ft | 366 kts | 354° |
| 2026-04-15 04:29 | 30.09800 | 77.21393 | 31847 ft | 369 kts | 356° |
| 2026-04-15 04:29 | 30.14909 | 77.22210 | 31846 ft | 381 kts | 7° |
| 2026-04-15 04:29 | 30.17378 | 77.23475 | 31845 ft | 398 kts | 24° |
| 2026-04-15 04:30 | 30.19533 | 77.25577 | 31839 ft | 415 kts | 43° |
| 2026-04-15 04:30 | 30.21109 | 77.28430 | 31835 ft | 429 kts | 62° |
| 2026-04-15 04:30 | 30.21894 | 77.31783 | 31830 ft | 438 kts | 83° |
| 2026-04-15 04:30 | 30.21755 | 77.35297 | 31822 ft | 439 kts | 104° |
| 2026-04-15 04:31 | 30.20685 | 77.38578 | 31843 ft | 437 kts | 125° |
| 2026-04-15 04:31 | 30.18819 | 77.41287 | 31846 ft | 428 kts | 145° |
| 2026-04-15 04:31 | 30.16407 | 77.43182 | 31846 ft | 413 kts | 164° |
| 2026-04-15 04:31 | 30.13739 | 77.44156 | 31844 ft | 395 kts | 182° |
| 2026-04-15 04:32 | 30.11047 | 77.44316 | 31847 ft | 384 kts | 191° |
| 2026-04-15 04:32 | 30.05750 | 77.43952 | 31845 ft | 379 kts | 195° |
| 2026-04-15 04:33 | 30.00511 | 77.43328 | 31844 ft | 379 kts | 196° |
| 2026-04-15 04:33 | 29.97978 | 77.42738 | 31835 ft | 362 kts | 211° |
| 2026-04-15 04:33 | 29.95817 | 77.41429 | 31833 ft | 343 kts | 227° |
| 2026-04-15 04:33 | 29.94147 | 77.39568 | 31831 ft | 328 kts | 241° |
| 2026-04-15 04:34 | 29.93028 | 77.37339 | 31826 ft | 317 kts | 255° |
| 2026-04-15 04:34 | 29.92481 | 77.34920 | 31826 ft | 310 kts | 267° |
| 2026-04-15 04:34 | 29.92503 | 77.32455 | 31825 ft | 307 kts | 279° |
| 2026-04-15 04:34 | 29.93069 | 77.30084 | 31824 ft | 308 kts | 291° |
| 2026-04-15 04:35 | 29.94157 | 77.27939 | 31825 ft | 313 kts | 304° |
| 2026-04-15 04:35 | 29.95722 | 77.26155 | 31823 ft | 322 kts | 317° |
| 2026-04-15 04:35 | 29.97715 | 77.24883 | 31823 ft | 335 kts | 331° |
| 2026-04-15 04:35 | 30.00040 | 77.24283 | 31821 ft | 352 kts | 347° |
| 2026-04-15 04:36 | 30.02522 | 77.24266 | 31825 ft | 360 kts | 352° |
| 2026-04-15 04:36 | 30.07561 | 77.24705 | 31823 ft | 366 kts | 355° |
| 2026-04-15 04:37 | 30.12640 | 77.25368 | 31824 ft | 373 kts | 2° |
| 2026-04-15 04:37 | 30.15134 | 77.26424 | 31821 ft | 394 kts | 21° |
| 2026-04-15 04:37 | 30.17316 | 77.28453 | 31825 ft | 414 kts | 43° |
| 2026-04-15 04:37 | 30.18826 | 77.31347 | 31821 ft | 430 kts | 66° |
| 2026-04-15 04:38 | 30.19348 | 77.34773 | 31834 ft | 440 kts | 91° |
| 2026-04-15 04:38 | 30.18757 | 77.38239 | 31846 ft | 441 kts | 116° |
| 2026-04-15 04:38 | 30.17143 | 77.41186 | 31842 ft | 430 kts | 141° |
| 2026-04-15 04:38 | 30.14809 | 77.43212 | 31844 ft | 412 kts | 164° |
| 2026-04-15 04:39 | 30.12157 | 77.44153 | 31844 ft | 390 kts | 185° |
| 2026-04-15 04:39 | 30.06888 | 77.44037 | 31843 ft | 379 kts | 195° |
| 2026-04-15 04:40 | 30.01662 | 77.43463 | 31839 ft | 377 kts | 197° |
| 2026-04-15 04:40 | 29.96733 | 77.42096 | 31836 ft | 349 kts | 220° |
| 2026-04-15 04:40 | 29.94850 | 77.40464 | 31826 ft | 332 kts | 235° |
| 2026-04-15 04:41 | 29.93497 | 77.38388 | 31826 ft | 319 kts | 249° |
| 2026-04-15 04:41 | 29.92704 | 77.36052 | 31823 ft | 310 kts | 262° |
| 2026-04-15 04:41 | 29.92473 | 77.33606 | 31826 ft | 306 kts | 274° |
| 2026-04-15 04:41 | 29.92802 | 77.31194 | 31824 ft | 306 kts | 286° |
| 2026-04-15 04:42 | 29.93664 | 77.28951 | 31825 ft | 309 kts | 298° |
| 2026-04-15 04:42 | 29.95026 | 77.27007 | 31824 ft | 317 kts | 311° |
| 2026-04-15 04:42 | 29.96834 | 77.25497 | 31825 ft | 328 kts | 324° |
| 2026-04-15 04:42 | 29.99027 | 77.24584 | 31825 ft | 344 kts | 340° |
| 2026-04-15 04:43 | 30.01465 | 77.24381 | 31825 ft | 357 kts | 350° |
| 2026-04-15 04:43 | 30.06491 | 77.24718 | 31823 ft | 365 kts | 354° |
| 2026-04-15 04:44 | 30.11563 | 77.25320 | 31829 ft | 368 kts | 356° |
| 2026-04-15 04:44 | 30.14102 | 77.26018 | 31824 ft | 386 kts | 13° |
| 2026-04-15 04:44 | 30.16444 | 77.27679 | 31824 ft | 408 kts | 34° |
| 2026-04-15 04:44 | 30.18257 | 77.30284 | 31815 ft | 426 kts | 57° |
| 2026-04-15 04:45 | 30.19178 | 77.33569 | 31815 ft | 438 kts | 82° |
| 2026-04-15 04:45 | 30.18992 | 77.37093 | 31843 ft | 443 kts | 107° |
| 2026-04-15 04:45 | 30.17723 | 77.40292 | 31839 ft | 436 kts | 133° |
| 2026-04-15 04:45 | 30.15592 | 77.42663 | 31839 ft | 418 kts | 157° |
| 2026-04-15 04:46 | 30.13000 | 77.43949 | 31840 ft | 396 kts | 179° |
| 2026-04-15 04:46 | 30.07695 | 77.44102 | 31841 ft | 378 kts | 195° |
| 2026-04-15 04:46 | 30.05080 | 77.43866 | 31842 ft | 376 kts | 196° |
| 2026-04-15 04:47 | 29.99880 | 77.43252 | 31839 ft | 374 kts | 199° |
| 2026-04-15 04:47 | 29.97444 | 77.42490 | 31833 ft | 353 kts | 216° |
| 2026-04-15 04:47 | 29.95428 | 77.41037 | 31830 ft | 334 kts | 231° |
| 2026-04-15 04:48 | 29.93909 | 77.39101 | 31826 ft | 320 kts | 245° |
| 2026-04-15 04:48 | 29.92943 | 77.36841 | 31825 ft | 310 kts | 258° |
| 2026-04-15 04:48 | 29.92548 | 77.34435 | 31822 ft | 304 kts | 270° |
| 2026-04-15 04:48 | 29.92708 | 77.32022 | 31821 ft | 303 kts | 282° |
| 2026-04-15 04:49 | 29.93397 | 77.29731 | 31820 ft | 305 kts | 294° |
| 2026-04-15 04:49 | 29.94596 | 77.27690 | 31821 ft | 312 kts | 307° |
| 2026-04-15 04:49 | 29.96265 | 77.26045 | 31820 ft | 322 kts | 320° |
| 2026-04-15 04:49 | 29.98341 | 77.24940 | 31820 ft | 337 kts | 334° |
| 2026-04-15 04:50 | 30.00718 | 77.24536 | 31821 ft | 355 kts | 348° |
| 2026-04-15 04:50 | 30.03205 | 77.24587 | 31824 ft | 360 kts | 352° |
| 2026-04-15 04:50 | 30.08248 | 77.25078 | 31824 ft | 366 kts | 355° |
| 2026-04-15 04:51 | 30.13321 | 77.25881 | 31822 ft | 380 kts | 8° |
| 2026-04-15 04:51 | 30.15723 | 77.27247 | 31823 ft | 402 kts | 27° |
| 2026-04-15 04:51 | 30.17729 | 77.29595 | 31822 ft | 423 kts | 50° |
| 2026-04-15 04:52 | 30.18935 | 77.32739 | 31815 ft | 437 kts | 75° |
| 2026-04-15 04:52 | 30.19060 | 77.36256 | 31835 ft | 444 kts | 101° |
| 2026-04-15 04:52 | 30.18071 | 77.39602 | 31842 ft | 440 kts | 126° |
| 2026-04-15 04:52 | 30.16107 | 77.42273 | 31840 ft | 423 kts | 152° |
| 2026-04-15 04:53 | 30.13623 | 77.43785 | 31842 ft | 400 kts | 175° |
| 2026-04-15 04:53 | 30.10955 | 77.44227 | 31844 ft | 380 kts | 192° |
| 2026-04-15 04:53 | 30.05717 | 77.43924 | 31839 ft | 375 kts | 196° |
| 2026-04-15 04:54 | 30.00603 | 77.43340 | 31837 ft | 374 kts | 197° |
| 2026-04-15 04:54 | 29.98037 | 77.42832 | 31829 ft | 358 kts | 211° |
| 2026-04-15 04:54 | 29.95915 | 77.41550 | 31826 ft | 335 kts | 228° |
| 2026-04-15 04:55 | 29.94321 | 77.39734 | 31822 ft | 320 kts | 242° |
| 2026-04-15 04:55 | 29.93226 | 77.37524 | 31821 ft | 309 kts | 255° |
| 2026-04-15 04:55 | 29.92681 | 77.35164 | 31821 ft | 303 kts | 267° |
| 2026-04-15 04:55 | 29.92681 | 77.32750 | 31817 ft | 301 kts | 279° |
| 2026-04-15 04:56 | 29.93227 | 77.30427 | 31817 ft | 302 kts | 291° |
| 2026-04-15 04:56 | 29.94288 | 77.28317 | 31817 ft | 308 kts | 303° |
| 2026-04-15 04:56 | 29.95828 | 77.26560 | 31820 ft | 318 kts | 316° |
| 2026-04-15 04:56 | 29.97805 | 77.25305 | 31821 ft | 333 kts | 331° |
| 2026-04-15 04:57 | 30.00122 | 77.24729 | 31820 ft | 351 kts | 347° |
| 2026-04-15 04:57 | 30.02594 | 77.24722 | 31826 ft | 359 kts | 351° |
| 2026-04-15 04:57 | 30.07630 | 77.25171 | 31823 ft | 365 kts | 354° |
| 2026-04-15 04:58 | 30.12695 | 77.25858 | 31822 ft | 375 kts | 3° |
| 2026-04-15 04:58 | 30.15179 | 77.27022 | 31822 ft | 398 kts | 23° |
| 2026-04-15 04:58 | 30.17276 | 77.29151 | 31820 ft | 419 kts | 45° |
| 2026-04-15 04:59 | 30.18659 | 77.32175 | 31815 ft | 436 kts | 71° |
| 2026-04-15 04:59 | 30.18985 | 77.35717 | 31835 ft | 445 kts | 96° |
| 2026-04-15 04:59 | 30.18197 | 77.39105 | 31839 ft | 443 kts | 121° |
| 2026-04-15 04:59 | 30.17086 | 77.41104 | 31838 ft | 434 kts | 139° |
| 2026-04-15 05:00 | 30.14813 | 77.43240 | 31839 ft | 412 kts | 164° |
| 2026-04-15 05:00 | 30.12179 | 77.44173 | 31839 ft | 386 kts | 186° |
| 2026-04-15 05:00 | 30.09567 | 77.44105 | 31842 ft | 372 kts | 197° |
| 2026-04-15 05:00 | 30.06978 | 77.43849 | 31840 ft | 374 kts | 196° |
| 2026-04-15 05:01 | 30.01792 | 77.43356 | 31839 ft | 374 kts | 196° |
| 2026-04-15 05:01 | 29.96745 | 77.42262 | 31658 ft | 372 kts | 209° |
| 2026-04-15 05:02 | 29.94241 | 77.41290 | 31396 ft | 386 kts | 209° |
| 2026-04-15 05:02 | 29.91652 | 77.40278 | 31152 ft | 399 kts | 208° |
| 2026-04-15 05:02 | 29.88959 | 77.39341 | 30908 ft | 412 kts | 200° |
| 2026-04-15 05:02 | 29.86065 | 77.38994 | 30661 ft | 421 kts | 194° |
| 2026-04-15 05:03 | 29.83152 | 77.38714 | 30423 ft | 420 kts | 194° |
| 2026-04-15 05:03 | 29.80227 | 77.38519 | 30185 ft | 421 kts | 192° |
| 2026-04-15 05:03 | 29.77294 | 77.38426 | 29945 ft | 421 kts | 191° |
| 2026-04-15 05:03 | 29.74365 | 77.38394 | 29677 ft | 421 kts | 190° |
| 2026-04-15 05:04 | 29.71445 | 77.38381 | 29401 ft | 419 kts | 190° |
| 2026-04-15 05:04 | 29.68538 | 77.38358 | 29127 ft | 417 kts | 190° |
| 2026-04-15 05:04 | 29.65643 | 77.38318 | 28860 ft | 415 kts | 190° |
| 2026-04-15 05:04 | 29.62766 | 77.38262 | 28596 ft | 413 kts | 190° |
| 2026-04-15 05:05 | 29.59903 | 77.38196 | 28326 ft | 411 kts | 190° |
| 2026-04-15 05:05 | 29.57051 | 77.38126 | 28065 ft | 409 kts | 190° |
| 2026-04-15 05:05 | 29.54211 | 77.38056 | 27804 ft | 408 kts | 190° |
| 2026-04-15 05:05 | 29.51380 | 77.37985 | 27542 ft | 406 kts | 190° |
| 2026-04-15 05:06 | 29.48558 | 77.37915 | 27293 ft | 405 kts | 190° |
| 2026-04-15 05:06 | 29.45751 | 77.37846 | 27039 ft | 403 kts | 190° |
| 2026-04-15 05:06 | 29.42949 | 77.37778 | 26790 ft | 402 kts | 190° |
| 2026-04-15 05:06 | 29.40160 | 77.37713 | 26538 ft | 400 kts | 190° |
| 2026-04-15 05:07 | 29.37378 | 77.37647 | 26301 ft | 399 kts | 190° |
| 2026-04-15 05:07 | 29.34606 | 77.37582 | 26051 ft | 398 kts | 190° |
| 2026-04-15 05:07 | 29.31849 | 77.37519 | 25808 ft | 396 kts | 189° |
| 2026-04-15 05:07 | 29.29096 | 77.37456 | 25569 ft | 395 kts | 190° |
| 2026-04-15 05:08 | 29.26352 | 77.37391 | 25335 ft | 394 kts | 190° |
| 2026-04-15 05:08 | 29.23621 | 77.37323 | 25097 ft | 393 kts | 190° |
| 2026-04-15 05:08 | 29.20892 | 77.37256 | 24862 ft | 392 kts | 189° |
| 2026-04-15 05:08 | 29.18167 | 77.37191 | 24634 ft | 391 kts | 189° |
| 2026-04-15 05:09 | 29.15453 | 77.37129 | 24405 ft | 390 kts | 189° |
| 2026-04-15 05:09 | 29.12745 | 77.37069 | 24177 ft | 389 kts | 189° |
| 2026-04-15 05:09 | 29.10047 | 77.37008 | 23951 ft | 388 kts | 190° |
| 2026-04-15 05:09 | 29.07348 | 77.36948 | 23727 ft | 387 kts | 189° |
| 2026-04-15 05:10 | 29.04659 | 77.36889 | 23501 ft | 386 kts | 189° |
| 2026-04-15 05:10 | 29.01976 | 77.36830 | 23256 ft | 385 kts | 189° |
| 2026-04-15 05:10 | 28.99302 | 77.36770 | 22995 ft | 384 kts | 189° |
| 2026-04-15 05:10 | 28.96672 | 77.36709 | 22726 ft | 382 kts | 189° |
| 2026-04-15 05:11 | 28.94017 | 77.36646 | 22463 ft | 381 kts | 189° |
| 2026-04-15 05:11 | 28.91370 | 77.36585 | 22203 ft | 380 kts | 189° |
| 2026-04-15 05:11 | 28.88701 | 77.36524 | 21945 ft | 378 kts | 189° |
| 2026-04-15 05:11 | 28.86109 | 77.36464 | 21690 ft | 376 kts | 189° |
| 2026-04-15 05:12 | 28.83521 | 77.36406 | 21439 ft | 368 kts | 189° |
| 2026-04-15 05:12 | 28.80984 | 77.36353 | 21183 ft | 361 kts | 189° |
| 2026-04-15 05:12 | 28.78491 | 77.36300 | 20936 ft | 357 kts | 189° |
| 2026-04-15 05:12 | 28.76015 | 77.36244 | 20691 ft | 355 kts | 189° |
| 2026-04-15 05:13 | 28.73552 | 77.36185 | 20451 ft | 353 kts | 189° |
| 2026-04-15 05:13 | 28.71101 | 77.36127 | 20210 ft | 352 kts | 189° |
| 2026-04-15 05:13 | 28.68659 | 77.36069 | 19973 ft | 351 kts | 188° |
| 2026-04-15 05:13 | 28.66233 | 77.36013 | 19733 ft | 345 kts | 188° |
| 2026-04-15 05:14 | 28.63854 | 77.35960 | 19498 ft | 339 kts | 188° |
| 2026-04-15 05:14 | 28.61482 | 77.35906 | 19262 ft | 334 kts | 188° |
| 2026-04-15 05:14 | 28.59207 | 77.35837 | 19034 ft | 327 kts | 192° |
| 2026-04-15 05:14 | 28.57129 | 77.35142 | 18801 ft | 302 kts | 220° |
| 2026-04-15 05:15 | 28.55776 | 77.33485 | 18579 ft | 279 kts | 250° |
| 2026-04-15 05:15 | 28.55423 | 77.31388 | 18356 ft | 267 kts | 274° |
| 2026-04-15 05:15 | 28.55640 | 77.29306 | 18131 ft | 263 kts | 281° |
| 2026-04-15 05:15 | 28.55983 | 77.27273 | 17882 ft | 260 kts | 281° |
| 2026-04-15 05:16 | 28.56286 | 77.25254 | 17611 ft | 258 kts | 279° |
| 2026-04-15 05:16 | 28.56510 | 77.23246 | 17351 ft | 255 kts | 277° |
| 2026-04-15 05:16 | 28.56665 | 77.21215 | 17092 ft | 252 kts | 275° |
| 2026-04-15 05:16 | 28.56768 | 77.19261 | 16843 ft | 250 kts | 274° |
| 2026-04-15 05:17 | 28.56841 | 77.17294 | 16589 ft | 248 kts | 273° |
| 2026-04-15 05:17 | 28.56899 | 77.15346 | 16336 ft | 245 kts | 273° |
| 2026-04-15 05:17 | 28.56949 | 77.13413 | 16094 ft | 244 kts | 273° |
| 2026-04-15 05:17 | 28.56995 | 77.11480 | 15699 ft | 248 kts | 273° |
| 2026-04-15 05:18 | 28.57207 | 77.09474 | 14975 ft | 264 kts | 290° |
| 2026-04-15 05:18 | 28.58222 | 77.07684 | 14294 ft | 280 kts | 316° |
| 2026-04-15 05:18 | 28.59952 | 77.06547 | 13586 ft | 298 kts | 341° |
| 2026-04-15 05:18 | 28.62050 | 77.06325 | 12552 ft | 314 kts | 5° |
| 2026-04-15 05:19 | 28.64187 | 77.07078 | 11430 ft | 330 kts | 21° |
| 2026-04-15 05:19 | 28.66151 | 77.08519 | 10230 ft | 347 kts | 41° |
| 2026-04-15 05:19 | 28.67574 | 77.10784 | 8979 ft | 360 kts | 64° |
| 2026-04-15 05:19 | 28.68212 | 77.13568 | 7628 ft | 369 kts | 86° |
| 2026-04-15 05:20 | 28.67966 | 77.16490 | 6234 ft | 375 kts | 104° |
| 2026-04-15 05:20 | 28.67048 | 77.19271 | 4824 ft | 377 kts | 119° |
| 2026-04-15 05:20 | 28.65729 | 77.21843 | 3553 ft | 374 kts | 121° |
| 2026-04-15 05:20 | 28.65274 | 77.22695 | 3160 ft | 372 kts | 121° |
| 2026-04-15 05:21 | 28.63497 | 77.25950 | 2313 ft | 346 kts | 124° |
| 2026-04-15 05:21 | 28.61270 | 77.28204 | 2119 ft | 308 kts | 157° |
| 2026-04-15 05:21 | 28.59335 | 77.28746 | 2324 ft | 270 kts | 180° |
| 2026-04-15 05:21 | 28.57655 | 77.28321 | 2544 ft | 233 kts | 213° |
| 2026-04-15 05:22 | 28.56487 | 77.27119 | 2789 ft | 225 kts | 234° |
| 2026-04-15 05:22 | 28.55540 | 77.25703 | 2953 ft | 222 kts | 237° |
| 2026-04-15 05:22 | 28.54673 | 77.24346 | 3008 ft | 201 kts | 237° |
| 2026-04-15 05:22 | 28.53924 | 77.23111 | 2991 ft | 179 kts | 249° |
| 2026-04-15 05:23 | 28.53679 | 77.21827 | 3139 ft | 159 kts | 267° |
| 2026-04-15 05:23 | 28.53704 | 77.20614 | 3037 ft | 150 kts | 279° |
| 2026-04-15 05:23 | 28.54030 | 77.19506 | 2746 ft | 149 kts | 294° |
| 2026-04-15 05:23 | 28.54481 | 77.18414 | 2283 ft | 156 kts | 282° |
| 2026-04-15 05:24 | 28.54719 | 77.17192 | 1801 ft | 159 kts | 282° |
| 2026-04-15 05:24 | 28.54992 | 77.15989 | 1449 ft | 153 kts | 284° |
| 2026-04-15 05:24 | 28.55269 | 77.14849 | 1170 ft | 145 kts | 283° |
| 2026-04-15 05:24 | 28.55501 | 77.13759 | 1003 ft | 141 kts | 283° |
| 2026-04-15 05:25 | 28.55751 | 77.12688 | 839 ft | 139 kts | 283° |
| 2026-04-15 05:25 | 28.55998 | 77.11630 | 750 ft | 132 kts | 285° |
| 2026-04-15 05:25 | 28.56185 | 77.10797 | 749 ft | 84 kts | 285° |
| 2026-04-15 05:25 | 28.56289 | 77.10344 | 751 ft | 34 kts | 284° |
| 2026-04-15 05:26 | 28.56314 | 77.10234 | 749 ft | 11 kts | 284° |
| 2026-04-15 05:26 | 28.56320 | 77.10093 | 749 ft | 21 kts | 261° |
| 2026-04-15 05:26 | 28.56261 | 77.09939 | 748 ft | 22 kts | 209° |
| 2026-04-15 05:26 | 28.56180 | 77.10005 | 748 ft | 16 kts | 101° |
| 2026-04-15 05:27 | 28.56155 | 77.10133 | 749 ft | 18 kts | 106° |
| 2026-04-15 05:27 | 28.56120 | 77.10275 | 746 ft | 19 kts | 106° |
| 2026-04-15 05:27 | 28.56079 | 77.10407 | 751 ft | 10 kts | 142° |
| 2026-04-15 05:27 | 28.56007 | 77.10392 | 747 ft | 12 kts | 197° |
| 2026-04-15 05:28 | 28.55920 | 77.10362 | 747 ft | 14 kts | 195° |
| 2026-04-15 05:28 | 28.55814 | 77.10334 | 748 ft | 17 kts | 193° |
| 2026-04-15 05:28 | 28.55721 | 77.10308 | 746 ft | 0 kts | 195° |